King Philippos — 9HA3023 — position and weather

sailwx.info

Track history (hours):
 
Tides and Currents Weather Stations Pressure Air Temp Water Temp Dewpoint Dewpoint Depression Visibility Wind Speed Wind Dir Waves Ship Positions

King Philippos

Last reported at 2014-Oct-24 09:19 UTC. Time now 2014-Oct-25 18:24 UTC.
Position N 38°47' W 009°57'.

Length 250 m; draft 11.7 m.

Type: Tanker. MMSI: 229046000.

Date/timePositionNaut miles runAvg speedWind from/ knotsBaromVisibWave heightAir tempDewpointWater temp
2014-Oct-24 09:19N 38°47' W 009°57'911.9
2014-Oct-24 08:32N 38°38' W 009°56'1211.9
2014-Oct-24 07:33N 38°26' W 009°52'1211.9
2014-Oct-24 06:33N 38°14' W 009°49'1111.3
2014-Oct-24 05:33N 38°03' W 009°45'1111.2
2014-Oct-24 04:33N 37°53' W 009°42'1110.9
2014-Oct-24 03:33N 37°42' W 009°39'1110.9
2014-Oct-24 02:33N 37°31' W 009°36'1110.8
2014-Oct-24 01:33N 37°21' W 009°33'1010.3
2014-Oct-24 00:33N 37°11' W 009°30'1010.1
2014-Oct-23 23:33N 37°01' W 009°27'1110.5
2014-Oct-23 22:32N 36°51' W 009°23'1010.4
2014-Oct-23 21:33N 36°43' W 009°15'2110.6
2014-Oct-23 19:33N 36°35' W 008°51'1111.1
2014-Oct-23 18:33N 36°31' W 008°38'1211.6
2014-Oct-23 17:33N 36°27' W 008°24'2811.7
2014-Oct-23 15:09N 36°18' W 007°51'711.7
2014-Oct-23 14:33N 36°16' W 007°43'10411.1
2014-Oct-23 05:09N 35°58' W 005°36'5 8.0
2014-Oct-23 04:33N 35°60' W 005°30'8 7.8
2014-Oct-23 03:33N 36°04' W 005°22'2 2.1
2014-Oct-23 02:33N 36°05' W 005°24'0 0.1
2014-Oct-23 01:33N 36°05' W 005°24'0 0.0
2014-Oct-23 00:12N 36°05' W 005°24'0 0.1
2014-Oct-22 23:33N 36°05' W 005°24'0 0.2
2014-Oct-22 22:30N 36°05' W 005°24'0 0.1
2014-Oct-22 21:33N 36°05' W 005°24'0 0.3
2014-Oct-22 20:33N 36°06' W 005°24'2 2.2
2014-Oct-22 19:33N 36°04' W 005°22'7 6.9
2014-Oct-22 18:33N 36°04' W 005°13'21510.7
2014-Oct-21 22:32N 36°29' W 000°48'1211.8
2014-Oct-21 21:30N 36°31' W 000°33'1111.6
2014-Oct-21 20:32N 36°33' W 000°20'1211.8
2014-Oct-21 19:31N 36°35' W 000°05'1111.5
2014-Oct-21 18:33N 36°37' E 000°09'1111.3
2014-Oct-21 17:33N 36°39' E 000°22'1110.9
2014-Oct-21 16:33N 36°40' E 000°36'1111.0
2014-Oct-21 15:32N 36°43' E 000°50'1110.8
2014-Oct-21 14:34N 36°45' E 001°03'1110.9
2014-Oct-21 13:33N 36°46' E 001°16'1111.3
2014-Oct-21 12:33N 36°48' E 001°30'1110.9
2014-Oct-21 11:34N 36°50' E 001°43'1110.8
2014-Oct-21 10:34N 36°52' E 001°57'1111.2
2014-Oct-21 09:32N 36°54' E 002°11'1111.7
2014-Oct-21 08:33N 36°56' E 002°25'1211.7
2014-Oct-21 07:33N 36°59' E 002°39'1311.2
2014-Oct-21 06:22N 37°01' E 002°55'910.7
2014-Oct-21 05:32N 37°03' E 003°06'1110.6
2014-Oct-21 04:32N 37°04' E 003°20'1311.0
2014-Oct-21 03:19N 37°07' E 003°36'11810.8
2014-Oct-20 16:26N 37°27' E 006°02'1211.9
2014-Oct-20 15:24N 37°29' E 006°17'1512.0
2014-Oct-20 14:11N 37°32' E 006°35'1011.9
2014-Oct-20 13:21N 37°33' E 006°47'3711.7
2014-Oct-20 10:12N 37°40' E 007°33'1911.4
2014-Oct-20 08:29N 37°44' E 007°57'1712.0
2014-Oct-20 07:07N 37°47' E 008°18'3211.7
2014-Oct-20 04:23N 37°52' E 008°58'911.4
2014-Oct-20 03:33N 37°50' E 009°09'1211.5
2014-Oct-20 02:33N 37°47' E 009°23'1211.7
2014-Oct-20 01:31N 37°44' E 009°38'1211.4
2014-Oct-20 00:27N 37°41' E 009°53'1411.2
2014-Oct-19 23:12N 37°39' E 010°11'910.8
2014-Oct-19 22:20N 37°37' E 010°22'15911.6
2014-Oct-19 08:33N 36°47' E 013°32'1211.6
2014-Oct-19 07:33N 36°43' E 013°46'1111.3
2014-Oct-19 06:33N 36°38' E 013°59'1111.1
2014-Oct-19 05:33N 36°34' E 014°11'1111.0
2014-Oct-19 04:33N 36°30' E 014°24'1111.0
2014-Oct-19 03:33N 36°26' E 014°37'30911.3
2014-Oct-18 00:17N 34°58' E 020°42'1411.4
2014-Oct-17 23:03N 34°54' E 020°59'611.6
2014-Oct-17 22:33N 34°52' E 021°05'1111.3
2014-Oct-17 21:33N 34°49' E 021°19'1111.3
2014-Oct-17 20:33N 34°46' E 021°32'35611.4
2014-Oct-16 13:21N 33°05' E 028°22'  
Track history (hours):
 
Tides and Currents Weather Stations Pressure Air Temp Water Temp Dewpoint Dewpoint Depression Visibility Wind Speed Wind Dir Waves Ship Positions

King Philippos

Last reported at 2014-Oct-24 09:19 UTC. Time now 2014-Oct-25 18:24 UTC.
Position N 38°47' W 009°57'.

Length 250 m; draft 11.7 m.

Type: Tanker. MMSI: 229046000.

Date/timePositionNaut miles runAvg speedWind from/ knotsBaromVisibWave heightAir tempDewpointWater temp
2014-Oct-24 09:19N 38°47' W 009°57'911.9
2014-Oct-24 08:32N 38°38' W 009°56'1211.9
2014-Oct-24 07:33N 38°26' W 009°52'1211.9
2014-Oct-24 06:33N 38°14' W 009°49'1111.3
2014-Oct-24 05:33N 38°03' W 009°45'1111.2
2014-Oct-24 04:33N 37°53' W 009°42'1110.9
2014-Oct-24 03:33N 37°42' W 009°39'1110.9
2014-Oct-24 02:33N 37°31' W 009°36'1110.8
2014-Oct-24 01:33N 37°21' W 009°33'1010.3
2014-Oct-24 00:33N 37°11' W 009°30'1010.1
2014-Oct-23 23:33N 37°01' W 009°27'1110.5
2014-Oct-23 22:32N 36°51' W 009°23'1010.4
2014-Oct-23 21:33N 36°43' W 009°15'2110.6
2014-Oct-23 19:33N 36°35' W 008°51'1111.1
2014-Oct-23 18:33N 36°31' W 008°38'1211.6
2014-Oct-23 17:33N 36°27' W 008°24'2811.7
2014-Oct-23 15:09N 36°18' W 007°51'711.7
2014-Oct-23 14:33N 36°16' W 007°43'10411.1
2014-Oct-23 05:09N 35°58' W 005°36'5 8.0
2014-Oct-23 04:33N 35°60' W 005°30'8 7.8
2014-Oct-23 03:33N 36°04' W 005°22'2 2.1
2014-Oct-23 02:33N 36°05' W 005°24'0 0.1
2014-Oct-23 01:33N 36°05' W 005°24'0 0.0
2014-Oct-23 00:12N 36°05' W 005°24'0 0.1
2014-Oct-22 23:33N 36°05' W 005°24'0 0.2
2014-Oct-22 22:30N 36°05' W 005°24'0 0.1
2014-Oct-22 21:33N 36°05' W 005°24'0 0.3
2014-Oct-22 20:33N 36°06' W 005°24'2 2.2
2014-Oct-22 19:33N 36°04' W 005°22'7 6.9
2014-Oct-22 18:33N 36°04' W 005°13'21510.7
2014-Oct-21 22:32N 36°29' W 000°48'1211.8
2014-Oct-21 21:30N 36°31' W 000°33'1111.6
2014-Oct-21 20:32N 36°33' W 000°20'1211.8
2014-Oct-21 19:31N 36°35' W 000°05'1111.5
2014-Oct-21 18:33N 36°37' E 000°09'1111.3
2014-Oct-21 17:33N 36°39' E 000°22'1110.9
2014-Oct-21 16:33N 36°40' E 000°36'1111.0
2014-Oct-21 15:32N 36°43' E 000°50'1110.8
2014-Oct-21 14:34N 36°45' E 001°03'1110.9
2014-Oct-21 13:33N 36°46' E 001°16'1111.3
2014-Oct-21 12:33N 36°48' E 001°30'1110.9
2014-Oct-21 11:34N 36°50' E 001°43'1110.8
2014-Oct-21 10:34N 36°52' E 001°57'1111.2
2014-Oct-21 09:32N 36°54' E 002°11'1111.7
2014-Oct-21 08:33N 36°56' E 002°25'1211.7
2014-Oct-21 07:33N 36°59' E 002°39'1311.2
2014-Oct-21 06:22N 37°01' E 002°55'910.7
2014-Oct-21 05:32N 37°03' E 003°06'1110.6
2014-Oct-21 04:32N 37°04' E 003°20'1311.0
2014-Oct-21 03:19N 37°07' E 003°36'11810.8
2014-Oct-20 16:26N 37°27' E 006°02'1211.9
2014-Oct-20 15:24N 37°29' E 006°17'1512.0
2014-Oct-20 14:11N 37°32' E 006°35'1011.9
2014-Oct-20 13:21N 37°33' E 006°47'3711.7
2014-Oct-20 10:12N 37°40' E 007°33'1911.4
2014-Oct-20 08:29N 37°44' E 007°57'1712.0
2014-Oct-20 07:07N 37°47' E 008°18'3211.7
2014-Oct-20 04:23N 37°52' E 008°58'911.4
2014-Oct-20 03:33N 37°50' E 009°09'1211.5
2014-Oct-20 02:33N 37°47' E 009°23'1211.7
2014-Oct-20 01:31N 37°44' E 009°38'1211.4
2014-Oct-20 00:27N 37°41' E 009°53'1411.2
2014-Oct-19 23:12N 37°39' E 010°11'910.8
2014-Oct-19 22:20N 37°37' E 010°22'15911.6
2014-Oct-19 08:33N 36°47' E 013°32'1211.6
2014-Oct-19 07:33N 36°43' E 013°46'1111.3
2014-Oct-19 06:33N 36°38' E 013°59'1111.1
2014-Oct-19 05:33N 36°34' E 014°11'1111.0
2014-Oct-19 04:33N 36°30' E 014°24'1111.0
2014-Oct-19 03:33N 36°26' E 014°37'30911.3
2014-Oct-18 00:17N 34°58' E 020°42'1411.4
2014-Oct-17 23:03N 34°54' E 020°59'611.6
2014-Oct-17 22:33N 34°52' E 021°05'1111.3
2014-Oct-17 21:33N 34°49' E 021°19'1111.3
2014-Oct-17 20:33N 34°46' E 021°32'35611.4
2014-Oct-16 13:21N 33°05' E 028°22'  

Dump ship's entire track history